Point Hope, Alaska
Current Conditions -  °F | °C
As of 3:16 PM on Friday 28 Nov 2014 (Local Time) from PAPO Reporting Station
Overcast Overcast  
Wind Chill:   Ceiling: 5000
Heat Index: 23°   Visibility: 10mi
Dew Point: 19°   Wind: 21mph
Humidity: 86%   Direction: 130°SE
Pressure: 30.01"   Gusts: NA
Location:  68.35°N, 166.81°W
Report Text: PAPO 290016Z 13018KT 10SM FEW027 FEW046 OVC050 M05/M07 A3001 RMK AO1
Loading
Personal Weather Stations






























Interactive Weather Map New forecast layout! Learn more

10-Day Weather Forecast

Advertisements
Track Severe Weather on mobile